createdAt,value
2018-06-30T00:01:15.844Z,17.20
2018-06-30T00:03:52.084Z,17.10
2018-06-30T00:06:27.303Z,17.00
2018-06-30T00:11:33.374Z,17.00
2018-06-30T00:14:02.710Z,16.90
2018-06-30T00:16:31.544Z,16.80
2018-06-30T00:19:00.248Z,16.80
2018-06-30T00:21:32.914Z,16.70
2018-06-30T00:24:01.829Z,16.70
2018-06-30T00:26:30.515Z,16.70
2018-06-30T00:29:00.332Z,16.70
2018-06-30T00:31:31.005Z,16.70
2018-06-30T00:34:00.910Z,16.70
2018-06-30T00:36:29.913Z,16.70
2018-06-30T00:38:59.850Z,16.70
2018-06-30T00:41:28.680Z,16.70
2018-06-30T00:43:57.408Z,16.70
2018-06-30T00:46:26.250Z,16.70
2018-06-30T00:48:55.221Z,16.70
2018-06-30T00:51:24.234Z,16.70
2018-06-30T00:53:55.157Z,16.80
2018-06-30T00:56:26.620Z,16.70
2018-06-30T00:58:55.308Z,16.80
2018-06-30T01:01:24.036Z,16.70
2018-06-30T01:03:52.918Z,16.70
2018-06-30T01:06:25.608Z,16.70
2018-06-30T01:09:00.411Z,16.60
2018-06-30T01:11:29.413Z,16.60
2018-06-30T01:13:58.210Z,16.60
2018-06-30T01:16:29.147Z,16.50
2018-06-30T01:18:57.932Z,16.50
2018-06-30T01:21:28.677Z,16.40
2018-06-30T01:23:58.704Z,16.40
2018-06-30T01:26:27.456Z,16.40
2018-06-30T01:28:58.306Z,16.40
2018-06-30T01:31:28.304Z,16.40
2018-06-30T01:33:58.152Z,16.40
2018-06-30T01:36:28.931Z,16.30
2018-06-30T01:38:58.759Z,16.30
2018-06-30T01:41:28.553Z,16.20
2018-06-30T01:43:57.463Z,16.20
2018-06-30T01:46:27.380Z,16.10
2018-06-30T01:49:02.699Z,16.00
2018-06-30T01:51:32.514Z,16.00
2018-06-30T01:54:01.220Z,15.90
2018-06-30T01:56:33.985Z,16.00
2018-06-30T01:59:02.723Z,16.00
2018-06-30T02:01:32.428Z,16.00
2018-06-30T02:04:01.256Z,15.90
2018-06-30T02:06:30.267Z,16.00
2018-06-30T02:08:59.139Z,16.00
2018-06-30T02:11:33.037Z,16.00
2018-06-30T02:14:01.785Z,16.00
2018-06-30T02:16:37.071Z,16.00
2018-06-30T02:19:05.859Z,16.00
2018-06-30T02:21:35.820Z,16.00
2018-06-30T02:24:05.698Z,16.00
2018-06-30T02:26:36.919Z,16.00
2018-06-30T02:29:05.768Z,15.90
2018-06-30T02:31:35.677Z,15.90
2018-06-30T02:34:04.615Z,15.80
2018-06-30T02:36:33.664Z,15.80
2018-06-30T02:39:03.494Z,15.90
2018-06-30T02:41:32.410Z,15.80
2018-06-30T02:44:01.424Z,15.80
2018-06-30T02:48:58.698Z,15.70
2018-06-30T02:51:27.548Z,15.70
2018-06-30T02:53:57.455Z,15.60
2018-06-30T02:56:31.369Z,15.60
2018-06-30T02:59:00.495Z,15.50
2018-06-30T03:01:29.341Z,15.50
2018-06-30T03:04:02.092Z,15.50
2018-06-30T03:06:31.808Z,15.50
2018-06-30T03:09:00.632Z,15.40
2018-06-30T03:11:30.609Z,15.40
2018-06-30T03:13:59.813Z,15.50
2018-06-30T03:16:30.709Z,15.50
2018-06-30T03:18:59.471Z,15.50
2018-06-30T03:21:29.373Z,15.50
2018-06-30T03:23:59.215Z,15.50
2018-06-30T03:26:29.086Z,15.50
2018-06-30T03:29:00.058Z,15.50
2018-06-30T03:31:30.904Z,15.40
2018-06-30T03:34:01.747Z,15.50
2018-06-30T03:36:30.585Z,15.50
2018-06-30T03:39:00.451Z,15.60
2018-06-30T03:41:31.193Z,15.60
2018-06-30T03:43:59.994Z,15.60
2018-06-30T03:46:30.772Z,15.50
2018-06-30T03:49:00.664Z,15.40
2018-06-30T03:51:31.473Z,15.50
2018-06-30T03:54:00.324Z,15.60
2018-06-30T03:56:29.243Z,15.70
2018-06-30T03:59:00.224Z,15.80
2018-06-30T04:01:29.707Z,15.80
2018-06-30T04:03:58.443Z,15.80
2018-06-30T04:06:29.358Z,15.90
2018-06-30T04:08:58.270Z,16.00
2018-06-30T04:11:28.180Z,16.10
2018-06-30T04:13:58.927Z,16.20
2018-06-30T04:16:28.962Z,16.20
2018-06-30T04:19:04.091Z,16.30
2018-06-30T04:21:35.397Z,16.50
2018-06-30T04:24:05.322Z,16.80
2018-06-30T04:26:34.403Z,17.10
2018-06-30T04:29:06.393Z,17.50
2018-06-30T04:31:37.752Z,18.10
2018-06-30T04:34:11.918Z,18.50
2018-06-30T04:36:41.258Z,19.10
2018-06-30T04:39:15.105Z,19.50
2018-06-30T04:41:54.508Z,19.70
2018-06-30T04:44:28.567Z,19.90
2018-06-30T04:46:59.529Z,19.90
2018-06-30T04:49:29.419Z,20.10
2018-06-30T04:52:04.148Z,20.70
2018-06-30T04:54:35.332Z,20.80
2018-06-30T04:57:15.920Z,21.00
2018-06-30T04:59:45.884Z,21.10
2018-06-30T05:02:19.151Z,21.20
2018-06-30T05:04:49.313Z,21.40
2018-06-30T05:07:24.919Z,21.40
2018-06-30T05:10:01.896Z,21.10
2018-06-30T05:12:32.100Z,21.80
2018-06-30T05:15:01.744Z,22.00
2018-06-30T05:17:30.947Z,21.90
2018-06-30T05:20:00.665Z,21.90
2018-06-30T05:22:35.955Z,22.30
2018-06-30T05:25:06.761Z,22.50
2018-06-30T05:27:37.985Z,22.50
2018-06-30T05:30:15.060Z,23.00
2018-06-30T05:32:52.389Z,22.60
2018-06-30T05:35:26.005Z,22.70
2018-06-30T05:37:56.285Z,22.50
2018-06-30T05:40:25.132Z,22.40
2018-06-30T05:42:54.132Z,22.50
2018-06-30T05:45:26.673Z,22.00
2018-06-30T05:47:57.097Z,21.70
2018-06-30T05:50:34.458Z,21.30
2018-06-30T05:55:40.324Z,20.50
2018-06-30T05:58:11.604Z,20.10
2018-06-30T06:00:42.342Z,20.20
2018-06-30T06:03:12.135Z,20.30
2018-06-30T06:05:45.047Z,20.50
2018-06-30T06:08:14.033Z,20.60
2018-06-30T06:10:42.893Z,20.20
2018-06-30T06:13:13.787Z,20.50
2018-06-30T06:15:44.624Z,20.90
2018-06-30T06:20:44.434Z,20.30
2018-06-30T06:23:14.489Z,20.20
2018-06-30T06:25:49.127Z,20.30
2018-06-30T06:28:24.510Z,20.10
2018-06-30T06:30:58.900Z,20.20
2018-06-30T06:33:32.719Z,20.40
2018-06-30T06:36:17.526Z,20.50
2018-06-30T06:38:48.444Z,21.10
2018-06-30T06:41:18.225Z,21.80
2018-06-30T06:43:57.300Z,22.50
2018-06-30T06:46:36.358Z,22.90
2018-06-30T06:49:05.297Z,23.20
2018-06-30T06:51:36.083Z,23.50
2018-06-30T06:54:12.696Z,24.10
2018-06-30T06:56:42.575Z,23.60
2018-06-30T06:59:15.946Z,24.10
2018-06-30T07:01:49.821Z,24.10
2018-06-30T07:04:23.657Z,24.50
2018-06-30T07:06:53.469Z,24.80
2018-06-30T07:09:29.354Z,24.10
2018-06-30T07:11:59.634Z,23.90
2018-06-30T07:14:33.026Z,22.90
2018-06-30T07:17:04.598Z,21.80
2018-06-30T07:19:35.892Z,21.70
2018-06-30T07:22:12.594Z,22.30
2018-06-30T07:24:46.076Z,22.40
2018-06-30T07:27:25.957Z,22.80
2018-06-30T07:30:03.345Z,22.70
2018-06-30T07:32:34.225Z,22.70
2018-06-30T07:35:08.569Z,22.90
2018-06-30T07:37:42.978Z,23.40
2018-06-30T07:40:13.761Z,23.30
2018-06-30T07:42:48.259Z,23.60
2018-06-30T07:45:18.585Z,23.40
2018-06-30T08:02:05.990Z,22.70
2018-06-30T08:16:12.011Z,23.00
2018-06-30T08:18:41.592Z,23.40
2018-06-30T08:26:49.907Z,22.80
2018-06-30T08:40:42.283Z,23.90
2018-06-30T08:46:18.609Z,23.50
2018-06-30T08:48:54.983Z,23.50
2018-06-30T08:54:36.802Z,23.10
2018-06-30T09:00:03.474Z,23.80
2018-06-30T09:08:13.447Z,23.70
2018-06-30T09:10:55.983Z,23.40
2018-06-30T09:50:08.333Z,25.00
2018-06-30T10:09:43.122Z,24.60
2018-06-30T10:21:03.618Z,24.80
2018-06-30T10:40:43.155Z,25.50
2018-06-30T11:00:17.214Z,25.80
2018-06-30T11:19:50.233Z,26.40
2018-06-30T11:39:25.755Z,26.30
2018-06-30T11:58:59.677Z,27.40
2018-06-30T12:18:35.163Z,27.40
2018-06-30T12:38:13.787Z,27.60
2018-06-30T12:57:55.985Z,27.20
2018-06-30T13:17:30.205Z,27.40
2018-06-30T13:38:29.657Z,27.80
2018-06-30T13:40:58.450Z,27.90
2018-06-30T13:43:27.084Z,28.10
2018-06-30T13:45:55.717Z,27.90
2018-06-30T13:48:24.414Z,27.80
2018-06-30T13:50:53.227Z,27.80
2018-06-30T13:53:21.942Z,27.90
2018-06-30T13:55:50.717Z,28.30
2018-06-30T13:58:20.365Z,28.30
2018-06-30T14:00:49.131Z,28.30
2018-06-30T14:03:17.803Z,28.30
2018-06-30T14:05:46.687Z,28.10
2018-06-30T14:08:15.307Z,28.10
2018-06-30T14:10:44.067Z,28.10
2018-06-30T14:13:12.752Z,28.10
2018-06-30T14:15:41.596Z,28.10
2018-06-30T14:18:10.229Z,28.10
2018-06-30T14:20:38.921Z,28.20
2018-06-30T14:23:07.706Z,28.20
2018-06-30T14:25:36.934Z,28.40
2018-06-30T14:28:06.122Z,28.40
2018-06-30T14:30:34.872Z,28.40
2018-06-30T14:33:03.592Z,28.60
2018-06-30T14:35:33.232Z,29.00
2018-06-30T14:38:01.997Z,28.80
2018-06-30T14:40:31.043Z,28.60
2018-06-30T14:42:59.655Z,28.60
2018-06-30T14:45:28.393Z,28.30
2018-06-30T14:47:57.067Z,28.40
2018-06-30T14:50:26.325Z,28.50
2018-06-30T14:52:55.504Z,28.70
2018-06-30T14:55:24.167Z,29.10
2018-06-30T14:57:53.852Z,28.60
2018-06-30T15:00:22.624Z,28.40
2018-06-30T15:02:51.367Z,28.60
2018-06-30T15:05:20.333Z,28.50
2018-06-30T15:07:49.108Z,28.60
2018-06-30T15:10:17.760Z,28.50
2018-06-30T15:12:46.462Z,28.50
2018-06-30T15:15:15.180Z,28.40
2018-06-30T15:17:43.858Z,28.60
2018-06-30T15:20:12.540Z,28.90
2018-06-30T15:22:43.211Z,28.80
2018-06-30T15:25:12.695Z,28.70
2018-06-30T15:27:41.617Z,28.70
2018-06-30T15:30:10.367Z,28.70
2018-06-30T15:32:39.202Z,28.70
2018-06-30T15:35:07.923Z,28.60
2018-06-30T15:37:36.615Z,28.80
2018-06-30T15:40:06.056Z,28.80
2018-06-30T15:42:34.731Z,29.00
2018-06-30T15:45:03.544Z,28.90
2018-06-30T15:47:32.219Z,28.80
2018-06-30T15:50:01.881Z,28.80
2018-06-30T15:52:30.612Z,28.70
2018-06-30T15:54:59.292Z,28.80
2018-06-30T15:57:27.915Z,28.90
2018-06-30T15:59:56.632Z,28.90
2018-06-30T16:02:25.427Z,28.60
2018-06-30T16:04:54.107Z,28.60
2018-06-30T16:07:22.787Z,28.80
2018-06-30T16:09:51.613Z,28.80
2018-06-30T16:12:20.332Z,28.70
2018-06-30T16:14:49.164Z,28.60
2018-06-30T16:17:18.352Z,28.70
2018-06-30T16:19:47.119Z,28.60
2018-06-30T16:22:16.855Z,28.40
2018-06-30T16:27:13.839Z,28.70
2018-06-30T16:29:42.536Z,28.80
2018-06-30T16:32:11.746Z,28.70
2018-06-30T16:34:40.388Z,28.70
2018-06-30T16:37:09.166Z,28.70
2018-06-30T16:39:37.818Z,28.90
2018-06-30T16:42:06.590Z,28.70
2018-06-30T16:44:35.303Z,28.50
2018-06-30T16:47:04.064Z,28.40
2018-06-30T16:49:32.795Z,28.60
2018-06-30T16:52:01.608Z,28.50
2018-06-30T16:54:30.967Z,28.30
2018-06-30T16:56:59.726Z,28.20
2018-06-30T16:59:28.443Z,28.20
2018-06-30T17:01:57.263Z,28.40
2018-06-30T17:04:25.980Z,28.10
2018-06-30T17:06:54.994Z,28.00
2018-06-30T17:09:23.617Z,27.90
2018-06-30T17:11:52.353Z,27.90
2018-06-30T17:14:21.201Z,28.00
2018-06-30T17:16:50.891Z,28.00
2018-06-30T17:19:20.357Z,28.20
2018-06-30T17:21:49.324Z,28.30
2018-06-30T17:24:18.052Z,28.20
2018-06-30T17:26:46.825Z,28.30
2018-06-30T17:29:15.548Z,28.40
2018-06-30T17:31:44.383Z,28.10
2018-06-30T17:34:13.081Z,28.00
2018-06-30T17:36:41.775Z,27.90
2018-06-30T17:39:11.164Z,27.70
2018-06-30T17:41:41.382Z,27.80
2018-06-30T17:44:10.525Z,27.70
2018-06-30T17:46:39.807Z,27.40
2018-06-30T17:49:08.561Z,27.30
2018-06-30T17:51:37.246Z,27.50
2018-06-30T17:54:07.140Z,27.60
2018-06-30T17:56:35.892Z,27.60
2018-06-30T17:59:04.797Z,27.90
2018-06-30T18:01:33.466Z,27.80
2018-06-30T18:04:02.248Z,27.60
2018-06-30T18:08:59.880Z,27.60
2018-06-30T18:11:28.607Z,27.60
2018-06-30T18:13:57.300Z,27.50
2018-06-30T18:16:26.215Z,27.30
2018-06-30T18:18:54.923Z,27.30
2018-06-30T18:21:23.660Z,27.30
2018-06-30T18:23:52.408Z,27.10
2018-06-30T18:26:21.136Z,26.90
2018-06-30T18:28:49.783Z,26.60
2018-06-30T18:31:18.565Z,26.50
2018-06-30T18:33:47.186Z,26.60
2018-06-30T18:36:15.903Z,26.60
2018-06-30T18:38:44.619Z,26.40
2018-06-30T18:41:13.249Z,26.20
2018-06-30T18:43:42.142Z,26.00
2018-06-30T18:46:10.856Z,25.90
2018-06-30T18:48:39.488Z,25.90
2018-06-30T18:51:09.180Z,25.90
2018-06-30T18:53:37.947Z,25.80
2018-06-30T18:56:07.182Z,25.70
2018-06-30T18:58:36.465Z,25.60
2018-06-30T19:01:05.260Z,25.50
2018-06-30T19:03:33.932Z,25.30
2018-06-30T19:06:02.718Z,25.30
2018-06-30T19:08:31.320Z,25.10
2018-06-30T19:11:00.040Z,25.00
2018-06-30T19:13:28.741Z,24.50
2018-06-30T19:15:57.437Z,24.10
2018-06-30T19:18:26.050Z,23.90
2018-06-30T19:20:54.778Z,23.60
2018-06-30T19:23:23.434Z,23.40
2018-06-30T19:25:52.098Z,23.20
2018-06-30T19:28:20.824Z,23.10
2018-06-30T19:30:49.451Z,23.10
2018-06-30T19:33:18.255Z,22.90
2018-06-30T19:35:46.943Z,23.00
2018-06-30T19:38:15.577Z,23.30
2018-06-30T19:40:44.300Z,23.20
2018-06-30T19:43:13.037Z,23.10
2018-06-30T19:45:41.843Z,23.10
2018-06-30T19:48:10.504Z,23.10
2018-06-30T19:50:39.296Z,23.10
2018-06-30T19:53:07.961Z,23.00
2018-06-30T19:55:36.575Z,23.00
2018-06-30T19:58:05.547Z,22.90
2018-06-30T20:00:34.231Z,22.80
2018-06-30T20:03:02.903Z,22.80
2018-06-30T20:05:31.589Z,22.80
2018-06-30T20:08:00.218Z,22.80
2018-06-30T20:10:28.908Z,22.80
2018-06-30T20:12:57.531Z,22.80
2018-06-30T20:15:26.185Z,22.90
2018-06-30T20:17:54.905Z,22.70
2018-06-30T20:20:23.645Z,22.70
2018-06-30T20:22:52.372Z,22.80
2018-06-30T20:25:21.151Z,22.90
2018-06-30T20:27:49.936Z,22.80
2018-06-30T20:30:18.605Z,22.70
2018-06-30T20:32:47.368Z,22.90
2018-06-30T20:35:16.045Z,22.90
2018-06-30T20:37:44.831Z,22.80
2018-06-30T20:40:13.550Z,22.50
2018-06-30T20:42:42.279Z,22.20
2018-06-30T20:45:11.101Z,22.10
2018-06-30T20:47:39.777Z,22.20
2018-06-30T20:50:08.418Z,22.20
2018-06-30T20:52:37.175Z,22.10
2018-06-30T20:55:06.131Z,22.10
2018-06-30T20:57:34.782Z,22.10
2018-06-30T21:00:03.585Z,22.00
2018-06-30T21:02:32.243Z,21.80
2018-06-30T21:05:01.550Z,21.80
2018-06-30T21:07:30.296Z,21.60
2018-06-30T21:09:59.936Z,21.50
2018-06-30T21:12:29.355Z,21.50
2018-06-30T21:14:59.031Z,21.40
2018-06-30T21:17:27.699Z,21.20
2018-06-30T21:19:56.419Z,21.40
2018-06-30T21:22:25.013Z,21.40
2018-06-30T21:24:53.711Z,21.50
2018-06-30T21:27:22.436Z,21.40
2018-06-30T21:29:51.067Z,21.20
2018-06-30T21:32:20.694Z,21.20
2018-06-30T21:34:49.372Z,21.00
2018-06-30T21:37:18.009Z,20.80
2018-06-30T21:39:46.643Z,20.60
2018-06-30T21:42:15.337Z,20.50
2018-06-30T21:44:44.114Z,20.40
2018-06-30T21:47:12.740Z,20.40
2018-06-30T21:49:41.460Z,20.30
2018-06-30T21:52:10.078Z,20.30
2018-06-30T21:54:38.731Z,20.20
2018-06-30T21:57:07.456Z,20.20
2018-06-30T21:59:36.149Z,20.20
2018-06-30T22:02:07.995Z,20.20
2018-06-30T22:04:37.445Z,20.20
2018-06-30T22:07:06.118Z,20.10
2018-06-30T22:09:34.765Z,20.10
2018-06-30T22:12:03.552Z,20.10
2018-06-30T22:14:32.299Z,20.00
2018-06-30T22:17:01.029Z,19.90
2018-06-30T22:19:29.703Z,20.00
2018-06-30T22:21:58.709Z,19.90
2018-06-30T22:24:28.420Z,19.80
2018-06-30T22:26:57.048Z,19.70
2018-06-30T22:29:25.658Z,19.70
2018-06-30T22:31:54.422Z,19.70
2018-06-30T22:34:23.042Z,19.80
2018-06-30T22:36:51.938Z,19.70
2018-06-30T22:39:31.625Z,19.60
2018-06-30T22:42:00.239Z,19.50
2018-06-30T22:46:58.199Z,19.20
2018-06-30T22:49:26.854Z,19.20
2018-06-30T22:51:55.499Z,19.30
2018-06-30T22:54:24.434Z,19.30
2018-06-30T22:56:53.069Z,19.40
2018-06-30T22:59:21.713Z,19.30
2018-06-30T23:01:50.471Z,19.20
2018-06-30T23:04:19.147Z,19.20
2018-06-30T23:06:47.784Z,19.20
2018-06-30T23:09:16.428Z,19.20
2018-06-30T23:11:45.056Z,19.10
2018-06-30T23:14:13.646Z,19.00
2018-06-30T23:16:42.411Z,19.10
2018-06-30T23:19:11.075Z,19.00
2018-06-30T23:21:39.843Z,19.00
2018-06-30T23:24:08.521Z,19.00
2018-06-30T23:26:37.173Z,18.90
2018-06-30T23:29:05.799Z,18.90
2018-06-30T23:31:34.462Z,18.90
2018-06-30T23:34:03.130Z,18.80
2018-06-30T23:36:31.876Z,18.70
2018-06-30T23:39:00.535Z,18.80
2018-06-30T23:41:29.211Z,18.80
2018-06-30T23:43:58.048Z,18.90
2018-06-30T23:46:27.745Z,18.90
2018-06-30T23:48:56.423Z,18.80
2018-06-30T23:51:25.085Z,18.60
2018-06-30T23:53:53.768Z,18.70
2018-06-30T23:56:22.406Z,18.60
2018-06-30T23:58:51.108Z,18.60
